createdAt,value
2019-02-15T00:00:30.816Z,91.40
2019-02-15T00:02:59.808Z,92.80
2019-02-15T00:05:28.699Z,92.40
2019-02-15T00:07:57.608Z,90.10
2019-02-15T00:10:26.481Z,90.00
2019-02-15T00:12:55.471Z,91.70
2019-02-15T00:15:24.465Z,92.80
2019-02-15T00:17:54.994Z,92.70
2019-02-15T00:20:28.493Z,88.80
2019-02-15T00:22:57.364Z,91.50
2019-02-15T00:25:26.275Z,87.20
2019-02-15T00:27:55.267Z,90.60
2019-02-15T00:30:24.158Z,91.10
2019-02-15T00:32:53.153Z,91.50
2019-02-15T00:35:22.145Z,92.70
2019-02-15T00:37:51.138Z,90.80
2019-02-15T00:40:20.029Z,94.00
2019-02-15T00:42:48.955Z,90.70
2019-02-15T00:45:19.448Z,92.20
2019-02-15T00:47:55.773Z,91.80
2019-02-15T00:50:26.241Z,90.00
2019-02-15T00:52:59.842Z,91.90
2019-02-15T00:55:39.559Z,93.30
2019-02-15T00:58:15.953Z,91.70
2019-02-15T01:00:57.960Z,93.90
2019-02-15T01:03:40.565Z,91.00
2019-02-15T01:06:11.093Z,92.80
2019-02-15T01:08:58.110Z,90.00
2019-02-15T01:11:37.346Z,90.90
2019-02-15T01:14:06.335Z,92.10
2019-02-15T01:16:35.328Z,91.80
2019-02-15T01:19:04.220Z,94.10
2019-02-15T01:21:33.109Z,91.90
2019-02-15T01:24:02.001Z,93.80
2019-02-15T01:26:35.193Z,92.80
2019-02-15T01:29:05.619Z,92.60
2019-02-15T01:31:36.041Z,94.60
2019-02-15T01:34:22.856Z,92.90
2019-02-15T01:36:53.386Z,90.50
2019-02-15T01:39:36.105Z,92.70
2019-02-15T01:42:23.487Z,94.90
2019-02-15T01:45:00.759Z,93.70
2019-02-15T01:47:40.765Z,94.30
2019-02-15T01:50:15.020Z,95.30
2019-02-15T01:52:43.871Z,91.40
2019-02-15T01:55:12.864Z,93.80
2019-02-15T01:57:41.755Z,92.60
2019-02-15T02:00:14.023Z,93.80
2019-02-15T02:02:43.118Z,94.70
2019-02-15T02:05:12.010Z,95.90
2019-02-15T02:07:40.906Z,96.40
2019-02-15T02:10:11.117Z,97.20
2019-02-15T02:12:40.835Z,92.70
2019-02-15T02:15:11.877Z,98.10
2019-02-15T02:17:40.868Z,94.70
2019-02-15T02:20:10.986Z,93.10
2019-02-15T02:22:39.877Z,97.10
2019-02-15T02:25:09.487Z,93.70
2019-02-15T02:27:38.374Z,94.10
2019-02-15T02:30:10.337Z,95.60
2019-02-15T02:32:39.342Z,94.60
2019-02-15T02:35:09.451Z,95.00
2019-02-15T02:37:38.341Z,92.70
2019-02-15T02:40:09.364Z,92.80
2019-02-15T02:42:38.274Z,93.60
2019-02-15T02:45:08.395Z,97.10
2019-02-15T02:47:37.386Z,97.20
2019-02-15T02:50:08.127Z,98.30
2019-02-15T02:52:37.115Z,98.10
2019-02-15T02:55:06.860Z,99.90
2019-02-15T02:57:35.817Z,99.20
2019-02-15T03:00:06.011Z,99.90
2019-02-15T03:02:34.929Z,97.90
2019-02-15T03:05:05.261Z,99.90
2019-02-15T03:07:34.144Z,99.90
2019-02-15T03:10:04.010Z,99.90
2019-02-15T03:12:32.950Z,99.80
2019-02-15T03:15:01.840Z,99.90
2019-02-15T03:17:30.833Z,99.50
2019-02-15T03:19:59.723Z,99.90
2019-02-15T03:22:28.620Z,99.90
2019-02-15T03:24:57.608Z,99.90
2019-02-15T03:27:27.512Z,99.90
2019-02-15T03:29:56.518Z,99.90
2019-02-15T03:32:25.407Z,99.90
2019-02-15T03:34:54.309Z,99.90
2019-02-15T03:37:30.970Z,99.90
2019-02-15T03:40:01.507Z,99.90
2019-02-15T03:42:30.492Z,99.90
2019-02-15T03:44:59.485Z,99.90
2019-02-15T03:47:28.888Z,99.90
2019-02-15T03:49:57.779Z,99.90
2019-02-15T03:52:26.671Z,99.90
2019-02-15T03:54:55.560Z,99.90
2019-02-15T03:57:25.168Z,99.90
2019-02-15T03:59:54.828Z,99.90
2019-02-15T04:02:23.769Z,99.90
2019-02-15T04:04:52.769Z,99.90
2019-02-15T04:07:21.654Z,99.90
2019-02-15T04:09:50.543Z,99.90
2019-02-15T04:12:19.434Z,99.90
2019-02-15T04:14:48.324Z,99.90
2019-02-15T04:17:17.325Z,99.90
2019-02-15T04:19:46.310Z,99.90
2019-02-15T04:22:15.203Z,99.90
2019-02-15T04:24:44.085Z,99.90
2019-02-15T04:27:13.029Z,99.90
2019-02-15T04:29:41.977Z,99.90
2019-02-15T04:32:10.970Z,99.90
2019-02-15T04:34:39.865Z,99.90
2019-02-15T04:37:08.751Z,99.90
2019-02-15T04:39:37.661Z,99.90
2019-02-15T04:42:06.606Z,99.90
2019-02-15T04:44:42.516Z,99.90
2019-02-15T04:47:06.062Z,99.90
2019-02-15T04:49:35.050Z,99.90
2019-02-15T04:52:04.041Z,99.90
2019-02-15T04:54:32.925Z,99.90
2019-02-15T04:57:01.817Z,99.90
2019-02-15T04:59:30.715Z,99.90
2019-02-15T05:01:59.706Z,99.90
2019-02-15T05:04:28.698Z,99.90
2019-02-15T05:06:57.591Z,99.90
2019-02-15T05:09:26.585Z,99.90
2019-02-15T05:11:55.576Z,99.90
2019-02-15T05:14:24.469Z,99.90
2019-02-15T05:16:53.357Z,99.90
2019-02-15T05:19:22.351Z,99.90
2019-02-15T05:21:51.344Z,99.90
2019-02-15T05:24:20.339Z,99.90
2019-02-15T05:26:49.329Z,99.90
2019-02-15T05:29:18.339Z,99.90
2019-02-15T05:31:47.317Z,99.90
2019-02-15T05:34:16.213Z,99.90
2019-02-15T05:36:45.201Z,99.90
2019-02-15T05:39:14.134Z,99.90
2019-02-15T05:41:43.095Z,99.90
2019-02-15T05:44:12.080Z,99.90
2019-02-15T05:46:41.087Z,99.90
2019-02-15T05:49:10.065Z,99.90
2019-02-15T05:51:39.062Z,99.90
2019-02-15T05:54:08.051Z,99.90
2019-02-15T05:56:36.940Z,99.90
2019-02-15T05:59:05.933Z,99.90
2019-02-15T06:01:35.329Z,99.90
2019-02-15T06:04:04.239Z,99.90
2019-02-15T06:06:33.220Z,99.90
2019-02-15T06:09:02.279Z,99.90
2019-02-15T06:11:31.718Z,99.90
2019-02-15T06:14:00.711Z,99.90
2019-02-15T06:16:29.709Z,99.90
2019-02-15T06:18:58.704Z,99.90
2019-02-15T06:21:27.590Z,99.90
2019-02-15T06:23:56.584Z,99.90
2019-02-15T06:26:25.481Z,99.90
2019-02-15T06:28:54.473Z,99.90
2019-02-15T06:31:23.459Z,99.90
2019-02-15T06:33:52.452Z,99.90
2019-02-15T06:36:21.353Z,99.90
2019-02-15T06:38:50.235Z,99.90
2019-02-15T06:41:19.124Z,99.90
2019-02-15T06:43:48.069Z,99.90
2019-02-15T06:46:17.008Z,99.90
2019-02-15T06:48:46.003Z,99.90
2019-02-15T06:51:14.891Z,99.90
2019-02-15T06:53:43.783Z,99.90
2019-02-15T06:56:12.777Z,99.90
2019-02-15T06:58:45.588Z,97.60
2019-02-15T07:01:15.369Z,97.30
2019-02-15T07:03:58.187Z,97.70
2019-02-15T07:06:28.204Z,96.30
2019-02-15T07:08:57.095Z,97.40
2019-02-15T07:11:26.090Z,96.10
2019-02-15T07:13:55.081Z,95.50
2019-02-15T07:16:23.972Z,92.80
2019-02-15T07:18:53.069Z,94.50
2019-02-15T07:21:22.062Z,94.30
2019-02-15T07:23:50.951Z,94.50
2019-02-15T07:26:19.849Z,94.00
2019-02-15T07:28:48.835Z,99.90
2019-02-15T07:31:17.830Z,93.60
2019-02-15T07:33:46.743Z,92.60
2019-02-15T07:36:15.611Z,92.70
2019-02-15T07:38:44.500Z,92.10
2019-02-15T07:41:13.391Z,89.80
2019-02-15T07:43:42.282Z,88.20
2019-02-15T07:46:11.176Z,89.20
2019-02-15T07:48:40.063Z,89.20
2019-02-15T07:51:09.860Z,85.60
2019-02-15T07:53:39.483Z,87.20
2019-02-15T07:56:08.378Z,90.10
2019-02-15T07:58:37.367Z,87.30
2019-02-15T08:01:06.260Z,90.20
2019-02-15T08:03:35.148Z,89.00
2019-02-15T08:06:04.148Z,87.80
2019-02-15T08:08:33.136Z,87.80
2019-02-15T08:11:02.028Z,81.70
2019-02-15T08:13:30.916Z,79.90
2019-02-15T08:15:59.807Z,79.60
2019-02-15T08:18:28.698Z,75.90
2019-02-15T08:20:58.666Z,78.00
2019-02-15T08:23:27.503Z,73.00
2019-02-15T08:25:56.395Z,70.20
2019-02-15T08:28:25.389Z,60.30
2019-02-15T08:30:54.278Z,55.10
2019-02-15T08:33:23.169Z,51.10
2019-02-15T08:35:52.172Z,99.90
2019-02-15T08:38:21.055Z,99.90
2019-02-15T08:40:49.943Z,1.00
2019-02-15T08:43:18.937Z,1.00
2019-02-15T08:45:47.930Z,1.00
2019-02-15T08:48:16.821Z,1.00
2019-02-15T08:50:45.646Z,1.00
2019-02-15T08:53:14.603Z,1.00
2019-02-15T08:55:43.497Z,34.90
2019-02-15T08:58:12.385Z,35.70
2019-02-15T09:00:41.274Z,34.10
2019-02-15T09:03:10.165Z,35.20
2019-02-15T09:05:39.055Z,19.00
2019-02-15T09:08:07.970Z,25.10
2019-02-15T09:10:36.940Z,27.00
2019-02-15T09:13:05.954Z,37.70
2019-02-15T09:15:34.825Z,38.00
2019-02-15T09:18:03.724Z,37.50
2019-02-15T09:20:32.658Z,42.30
2019-02-15T09:23:01.496Z,38.50
2019-02-15T09:25:30.386Z,36.50
2019-02-15T09:28:17.609Z,37.60
2019-02-15T09:30:48.341Z,40.50
2019-02-15T09:33:17.335Z,40.10
2019-02-15T09:35:46.330Z,37.70
2019-02-15T09:38:15.246Z,39.20
2019-02-15T09:40:44.145Z,39.70
2019-02-15T09:43:13.105Z,41.00
2019-02-15T09:45:41.996Z,40.60
2019-02-15T09:48:10.886Z,40.70
2019-02-15T09:50:39.883Z,40.50
2019-02-15T09:53:08.871Z,39.80
2019-02-15T09:55:37.729Z,39.80
2019-02-15T09:58:06.652Z,40.30
2019-02-15T10:00:35.546Z,38.90
2019-02-15T10:03:04.535Z,40.80
2019-02-15T10:05:33.531Z,39.20
2019-02-15T10:08:02.421Z,39.30
2019-02-15T10:10:31.318Z,39.80
2019-02-15T10:13:00.305Z,42.70
2019-02-15T10:15:29.195Z,42.70
2019-02-15T10:17:58.088Z,42.20
2019-02-15T10:20:26.976Z,40.40
2019-02-15T10:22:55.880Z,38.00
2019-02-15T10:25:24.757Z,39.00
2019-02-15T10:27:53.647Z,38.30
2019-02-15T10:30:22.540Z,40.30
2019-02-15T10:32:51.533Z,40.30
2019-02-15T10:35:20.422Z,41.40
2019-02-15T10:37:49.313Z,43.10
2019-02-15T10:40:18.306Z,1.00
2019-02-15T10:42:47.199Z,1.00
2019-02-15T10:45:17.002Z,1.00
2019-02-15T10:47:45.903Z,42.00
2019-02-15T10:50:15.002Z,44.60
2019-02-15T10:52:43.888Z,46.50
2019-02-15T10:55:12.879Z,48.60
2019-02-15T10:57:41.873Z,47.30
2019-02-15T11:00:18.574Z,45.80
2019-02-15T11:02:48.261Z,49.50
2019-02-15T11:05:18.921Z,48.10
2019-02-15T11:07:48.083Z,48.20
2019-02-15T11:10:17.592Z,47.90
2019-02-15T11:12:46.481Z,46.50
2019-02-15T11:15:17.878Z,49.70
2019-02-15T11:17:46.824Z,48.50
2019-02-15T11:20:18.361Z,47.20
2019-02-15T11:22:47.267Z,48.80
2019-02-15T11:25:16.157Z,50.20
2019-02-15T11:27:45.050Z,48.90
2019-02-15T11:30:16.807Z,49.70
2019-02-15T11:32:45.688Z,48.30
2019-02-15T11:35:15.517Z,48.30
2019-02-15T11:37:44.505Z,49.70
2019-02-15T11:40:16.772Z,49.60
2019-02-15T11:42:45.667Z,48.30
2019-02-15T11:45:16.195Z,49.00
2019-02-15T11:47:45.087Z,50.20
2019-02-15T11:50:15.988Z,51.10
2019-02-15T11:52:44.913Z,49.70
2019-02-15T11:55:13.808Z,49.20
2019-02-15T11:57:42.688Z,49.30
2019-02-15T12:00:17.813Z,49.50
2019-02-15T12:02:46.509Z,47.10
2019-02-15T12:05:15.411Z,48.10
2019-02-15T12:07:44.301Z,50.50
2019-02-15T12:10:13.192Z,47.70
2019-02-15T12:12:42.184Z,47.70
2019-02-15T12:15:12.135Z,48.40
2019-02-15T12:17:41.092Z,50.20
2019-02-15T12:20:12.977Z,49.40
2019-02-15T12:22:41.947Z,50.60
2019-02-15T12:25:10.835Z,49.30
2019-02-15T12:27:39.670Z,48.30
2019-02-15T12:30:13.965Z,49.30
2019-02-15T12:32:42.935Z,50.10
2019-02-15T12:35:12.592Z,50.70
2019-02-15T12:37:41.537Z,49.40
2019-02-15T12:40:12.408Z,49.00
2019-02-15T12:42:41.365Z,49.30
2019-02-15T12:45:12.840Z,50.30
2019-02-15T12:47:41.690Z,48.40
2019-02-15T12:50:19.006Z,48.30
2019-02-15T12:52:47.886Z,49.70
2019-02-15T12:55:16.775Z,48.80
2019-02-15T12:57:45.768Z,47.20
2019-02-15T13:00:17.142Z,47.20
2019-02-15T13:02:46.037Z,47.70
2019-02-15T13:05:15.717Z,47.90
2019-02-15T13:07:44.612Z,49.70
2019-02-15T13:10:16.472Z,49.00
2019-02-15T13:12:45.361Z,48.70
2019-02-15T13:15:14.257Z,46.90
2019-02-15T13:17:43.244Z,46.70
2019-02-15T13:20:12.933Z,46.00
2019-02-15T13:22:41.845Z,47.40
2019-02-15T13:25:10.846Z,46.20
2019-02-15T13:27:39.729Z,46.70
2019-02-15T13:30:14.045Z,45.70
2019-02-15T13:32:43.113Z,47.50
2019-02-15T13:35:17.793Z,50.30
2019-02-15T13:37:46.652Z,46.00
2019-02-15T13:40:15.651Z,46.50
2019-02-15T13:42:44.543Z,48.10
2019-02-15T13:45:14.253Z,49.10
2019-02-15T13:47:43.126Z,45.30
2019-02-15T13:50:16.336Z,46.30
2019-02-15T13:52:45.176Z,47.40
2019-02-15T13:55:14.025Z,46.00
2019-02-15T13:57:42.871Z,46.90
2019-02-15T14:00:14.150Z,46.70
2019-02-15T14:02:43.143Z,46.60
2019-02-15T14:05:13.919Z,49.00
2019-02-15T14:07:42.764Z,45.40
2019-02-15T14:10:14.221Z,46.30
2019-02-15T14:12:43.110Z,46.40
2019-02-15T14:15:13.714Z,46.70
2019-02-15T14:17:46.318Z,47.70
2019-02-15T14:20:14.902Z,45.90
2019-02-15T14:22:43.793Z,48.90
2019-02-15T14:25:13.707Z,48.30
2019-02-15T14:27:42.586Z,47.90
2019-02-15T14:30:13.950Z,49.10
2019-02-15T14:32:42.845Z,47.20
2019-02-15T14:35:13.965Z,49.50
2019-02-15T14:37:43.080Z,48.20
2019-02-15T14:40:14.181Z,49.30
2019-02-15T14:42:43.113Z,48.40
2019-02-15T14:45:13.501Z,49.10
2019-02-15T14:47:42.388Z,48.50
2019-02-15T14:50:12.323Z,50.60
2019-02-15T14:52:41.239Z,50.20
2019-02-15T14:55:12.055Z,49.30
2019-02-15T14:57:40.962Z,48.80
2019-02-15T15:00:12.411Z,49.40
2019-02-15T15:02:41.405Z,49.60
2019-02-15T15:05:12.751Z,51.10
2019-02-15T15:07:42.292Z,50.70
2019-02-15T15:10:12.578Z,53.40
2019-02-15T15:12:41.481Z,51.00
2019-02-15T15:15:16.048Z,52.00
2019-02-15T15:17:44.993Z,52.20
2019-02-15T15:20:14.804Z,51.70
2019-02-15T15:22:43.689Z,53.10
2019-02-15T15:25:15.067Z,52.70
2019-02-15T15:27:44.035Z,54.00
2019-02-15T15:30:14.844Z,53.90
2019-02-15T15:32:43.864Z,56.90
2019-02-15T15:35:13.780Z,57.80
2019-02-15T15:37:42.776Z,57.10
2019-02-15T15:40:14.320Z,56.50
2019-02-15T15:42:43.215Z,57.60
2019-02-15T15:45:13.028Z,58.50
2019-02-15T15:47:41.912Z,59.40
2019-02-15T15:50:14.291Z,60.00
2019-02-15T15:52:43.173Z,60.00
2019-02-15T15:55:14.450Z,61.30
2019-02-15T15:57:43.299Z,61.70
2019-02-15T16:00:14.909Z,60.00
2019-02-15T16:02:43.866Z,61.30
2019-02-15T16:05:12.757Z,63.50
2019-02-15T16:07:43.711Z,63.20
2019-02-15T22:02:24.939Z,64.00
2019-02-15T22:04:53.842Z,99.90
2019-02-15T22:07:23.182Z,99.90
2019-02-15T22:09:52.022Z,99.90
2019-02-15T22:12:20.911Z,99.90
2019-02-15T22:14:49.803Z,99.90
2019-02-15T22:17:18.695Z,99.90
2019-02-15T22:19:47.685Z,99.90
2019-02-15T22:22:16.577Z,99.90
2019-02-15T22:24:45.466Z,99.90
2019-02-15T22:27:14.463Z,99.90
2019-02-15T22:29:43.456Z,99.90
2019-02-15T22:32:13.675Z,99.90
2019-02-15T22:34:42.570Z,99.90
2019-02-15T22:37:11.444Z,99.90
2019-02-15T22:39:40.349Z,99.90
2019-02-15T22:42:09.237Z,99.90
2019-02-15T22:44:38.076Z,99.90
2019-02-15T22:47:06.961Z,99.90
2019-02-15T22:49:43.110Z,99.90
2019-02-15T22:52:06.439Z,99.90
2019-02-15T22:54:35.331Z,99.90
2019-02-15T22:57:04.323Z,99.90
2019-02-15T22:59:33.215Z,99.90
2019-02-15T23:02:02.050Z,99.90
2019-02-15T23:04:30.996Z,99.90
2019-02-15T23:06:59.995Z,99.90
2019-02-15T23:09:28.882Z,99.90
2019-02-15T23:11:57.872Z,99.90
2019-02-15T23:14:26.864Z,99.90
2019-02-15T23:16:55.756Z,99.90
2019-02-15T23:19:24.588Z,99.90
2019-02-15T23:21:53.536Z,99.90
2019-02-15T23:24:22.530Z,99.90
2019-02-15T23:26:51.421Z,99.90
2019-02-15T23:29:20.311Z,99.90
2019-02-15T23:31:49.202Z,99.90
2019-02-15T23:34:18.092Z,99.90
